createdAt,value
2019-03-09T14:07:05.374Z,64.60
2019-03-09T14:08:05.342Z,70.10
2019-03-09T14:09:35.831Z,60.60
2019-03-09T14:10:35.805Z,70.70
2019-03-09T14:12:06.292Z,55.50
2019-03-09T14:13:06.279Z,64.40
2019-03-09T14:14:36.761Z,55.80
2019-03-09T14:15:36.728Z,81.90
2019-03-09T14:17:07.217Z,68.80
2019-03-09T14:18:07.190Z,62.40
2019-03-09T14:19:07.198Z,66.70
2019-03-09T14:20:07.165Z,60.70
2019-03-09T14:21:07.156Z,61.30
2019-03-09T14:22:07.152Z,63.60
2019-03-09T14:23:07.134Z,61.80
2019-03-09T14:24:07.182Z,61.50
2019-03-09T14:25:07.112Z,61.20
2019-03-09T14:26:07.100Z,66.60
2019-03-09T14:27:07.090Z,58.60
2019-03-09T14:28:07.087Z,56.80
2019-03-09T14:29:07.076Z,70.80
2019-03-09T14:30:07.058Z,68.30
2019-03-09T14:31:07.047Z,82.40
2019-03-09T14:32:07.041Z,74.10
2019-03-09T14:33:07.028Z,72.00
2019-03-09T14:34:07.033Z,83.10
2019-03-09T14:35:07.008Z,78.90
2019-03-09T14:36:06.999Z,73.20
2019-03-09T14:37:06.983Z,64.60
2019-03-09T14:38:06.984Z,62.70
2019-03-09T14:39:06.968Z,58.00
2019-03-09T14:40:06.955Z,67.10
2019-03-09T14:41:06.942Z,59.50
2019-03-09T14:42:06.938Z,66.50
2019-03-09T14:43:06.918Z,60.80
2019-03-09T14:44:06.905Z,60.00
2019-03-09T14:45:06.895Z,56.50
2019-03-09T14:46:06.892Z,58.10
2019-03-09T14:47:06.896Z,62.00
2019-03-09T14:48:06.867Z,56.90
2019-03-09T14:49:06.879Z,57.00
2019-03-09T14:50:06.886Z,59.70
2019-03-09T14:51:08.192Z,45.50
2019-03-09T14:52:06.842Z,49.20
2019-03-09T14:53:06.817Z,51.00
2019-03-09T14:54:06.825Z,51.10
2019-03-09T14:55:06.795Z,49.10
2019-03-09T14:56:06.784Z,43.80
2019-03-09T14:57:06.782Z,43.50
2019-03-09T14:58:06.761Z,56.90
2019-03-09T14:59:06.755Z,50.00
2019-03-09T15:00:06.743Z,47.80
2019-03-09T15:01:06.732Z,44.00
2019-03-09T15:02:06.718Z,47.70
2019-03-09T15:03:06.714Z,39.00
2019-03-09T15:04:06.695Z,48.30
2019-03-09T15:05:06.691Z,44.90
2019-03-09T15:06:06.672Z,47.60
2019-03-09T15:07:06.671Z,42.30
2019-03-09T15:08:06.656Z,43.00
2019-03-09T15:09:06.663Z,46.90
2019-03-09T15:10:06.633Z,41.90
2019-03-09T15:11:06.624Z,39.80
2019-03-09T15:12:06.607Z,48.70
2019-03-09T15:13:06.601Z,44.00
2019-03-09T15:14:06.590Z,42.20
2019-03-09T15:15:06.623Z,34.10
2019-03-09T15:16:06.565Z,30.60
2019-03-09T15:17:06.642Z,26.80
2019-03-09T15:18:07.035Z,21.10
2019-03-09T15:19:06.568Z,26.00
2019-03-09T15:20:06.534Z,20.70
2019-03-09T15:21:06.525Z,20.10
2019-03-09T15:22:06.608Z,21.10
2019-03-09T15:23:06.498Z,27.40
2019-03-09T15:24:06.913Z,26.30
2019-03-09T15:25:06.564Z,22.70
2019-03-09T15:26:06.655Z,24.80
2019-03-09T15:27:06.482Z,30.00
2019-03-09T15:28:06.439Z,24.10
2019-03-09T15:29:06.426Z,26.10
2019-03-09T15:30:06.409Z,23.60
2019-03-09T15:31:06.401Z,22.80
2019-03-09T15:32:06.393Z,22.80
2019-03-09T15:33:06.386Z,22.10
2019-03-09T15:34:06.377Z,24.70
2019-03-09T15:35:06.360Z,24.40
2019-03-09T15:36:06.350Z,29.40
2019-03-09T15:37:06.344Z,19.20
2019-03-09T15:38:06.338Z,20.90
2019-03-09T15:39:06.323Z,20.10
2019-03-09T15:40:06.309Z,21.70
2019-03-09T15:41:06.297Z,22.10
2019-03-09T15:42:06.279Z,23.20
2019-03-09T15:43:06.278Z,20.00
2019-03-09T15:44:06.262Z,19.80
2019-03-09T15:45:06.249Z,20.20
2019-03-09T15:46:06.237Z,22.20
2019-03-09T15:47:06.228Z,16.70
2019-03-09T15:48:06.216Z,21.70
2019-03-09T15:49:06.208Z,18.60
2019-03-09T15:50:06.211Z,20.80
2019-03-09T15:51:06.224Z,24.00
2019-03-09T15:52:06.206Z,21.80
2019-03-09T15:53:06.164Z,17.40
2019-03-09T15:54:06.153Z,18.00
2019-03-09T15:55:06.158Z,16.70
2019-03-09T15:56:06.130Z,18.20
2019-03-09T15:57:06.123Z,17.20
2019-03-09T15:58:06.112Z,19.60
2019-03-09T15:59:06.103Z,18.40
2019-03-09T16:00:06.091Z,15.50
2019-03-09T16:01:06.097Z,19.40
2019-03-09T16:02:06.072Z,18.80
2019-03-09T16:03:06.055Z,19.00
2019-03-09T16:04:06.049Z,18.30
2019-03-09T16:05:06.131Z,17.30
2019-03-09T16:06:06.104Z,14.90
2019-03-09T16:07:06.018Z,18.60
2019-03-09T16:08:06.013Z,17.20
2019-03-09T16:09:06.003Z,14.00
2019-03-09T16:10:05.986Z,17.30
2019-03-09T16:11:05.972Z,15.30
2019-03-09T16:12:05.962Z,17.30
2019-03-09T16:13:05.951Z,17.30
2019-03-09T16:14:05.953Z,14.90
2019-03-09T16:15:05.930Z,16.50
2019-03-09T16:16:05.922Z,16.00
2019-03-09T16:17:05.911Z,14.40
2019-03-09T16:18:05.908Z,16.50
2019-03-09T16:19:05.886Z,16.70
2019-03-09T16:20:05.897Z,13.90
2019-03-09T16:21:05.871Z,14.10
2019-03-09T16:22:05.870Z,16.20
2019-03-09T16:23:05.847Z,12.90
2019-03-09T16:24:05.844Z,14.60
2019-03-09T16:25:05.821Z,17.30
2019-03-09T16:26:05.811Z,18.40
2019-03-09T16:27:05.811Z,12.80
2019-03-09T16:28:05.789Z,12.10
2019-03-09T16:29:05.784Z,13.20
2019-03-09T16:30:05.782Z,16.00
2019-03-09T16:31:05.759Z,15.80
2019-03-09T16:32:05.747Z,15.90
2019-03-09T16:33:05.759Z,13.90
2019-03-09T16:34:05.726Z,9.90
2019-03-09T16:35:05.721Z,15.70
2019-03-09T16:36:05.711Z,12.70
2019-03-09T16:37:05.704Z,11.70
2019-03-09T16:38:05.688Z,13.40
2019-03-09T16:39:05.691Z,13.40
2019-03-09T16:40:05.671Z,12.30
2019-03-09T16:41:05.659Z,14.60
2019-03-09T16:42:05.651Z,15.10
2019-03-09T16:43:05.640Z,12.10
2019-03-09T16:44:05.623Z,15.70
2019-03-09T16:45:05.648Z,11.90
2019-03-09T16:46:05.612Z,12.20
2019-03-09T16:47:05.601Z,10.90
2019-03-09T16:48:05.735Z,13.30
2019-03-09T16:49:05.571Z,10.80
2019-03-09T16:50:05.557Z,12.50
2019-03-09T16:51:05.551Z,15.00
2019-03-09T16:52:05.542Z,13.40
2019-03-09T16:53:05.546Z,12.30
2019-03-09T16:54:05.523Z,13.10
2019-03-09T16:55:05.502Z,11.30
2019-03-09T16:56:05.522Z,11.10
2019-03-09T16:57:05.497Z,13.00
2019-03-09T16:58:05.470Z,10.10
2019-03-09T16:59:05.464Z,12.00
2019-03-09T17:00:05.450Z,11.50
2019-03-09T17:01:05.440Z,9.40
2019-03-09T17:02:05.430Z,12.00
2019-03-09T17:03:05.432Z,11.30
2019-03-09T17:04:05.416Z,11.30
2019-03-09T17:05:05.399Z,10.70
2019-03-09T17:06:05.391Z,10.10
2019-03-09T17:07:05.453Z,12.60
2019-03-09T17:08:05.369Z,14.10
2019-03-09T17:09:05.366Z,13.90
2019-03-09T17:10:05.365Z,14.70
2019-03-09T17:11:05.330Z,13.20
2019-03-09T17:12:05.327Z,14.00
2019-03-09T17:13:05.311Z,13.10
2019-03-09T17:14:05.303Z,14.80
2019-03-09T17:15:05.315Z,14.20
2019-03-09T17:16:05.284Z,22.00
2019-03-09T17:17:05.277Z,18.80
2019-03-09T17:18:05.259Z,17.40
2019-03-09T17:19:05.254Z,17.80
2019-03-09T17:20:05.239Z,14.30
2019-03-09T17:21:05.242Z,16.50
2019-03-09T17:22:05.222Z,15.60
2019-03-09T17:23:05.211Z,15.30
2019-03-09T17:24:05.194Z,14.80
2019-03-09T17:25:05.201Z,20.00
2019-03-09T17:26:05.178Z,16.20
2019-03-09T17:27:05.183Z,14.90
2019-03-09T17:28:05.157Z,22.50
2019-03-09T17:29:05.165Z,18.20
2019-03-09T17:30:05.136Z,15.00
2019-03-09T17:31:05.120Z,15.40
2019-03-09T17:32:05.140Z,19.50
2019-03-09T17:33:05.099Z,22.60
2019-03-09T17:34:05.135Z,18.20
2019-03-09T17:35:05.077Z,24.60
2019-03-09T17:36:05.066Z,30.40
2019-03-09T17:37:05.060Z,23.00
2019-03-09T17:38:05.058Z,24.60
2019-03-09T17:39:05.051Z,27.40
2019-03-09T17:40:05.028Z,29.00
2019-03-09T17:41:05.023Z,21.60
2019-03-09T17:42:05.019Z,25.00
2019-03-09T17:43:05.006Z,26.60
2019-03-09T17:44:04.997Z,22.90
2019-03-09T17:45:04.971Z,21.60
2019-03-09T17:46:04.965Z,28.30
2019-03-09T17:47:04.957Z,25.60
2019-03-09T17:48:04.959Z,23.20
2019-03-09T17:49:04.959Z,26.50
2019-03-09T17:50:04.925Z,24.20
2019-03-09T17:51:04.933Z,21.10
2019-03-09T17:52:04.906Z,18.30
2019-03-09T17:53:04.891Z,20.30
2019-03-09T17:54:04.880Z,19.00
2019-03-09T17:55:04.869Z,18.40
2019-03-09T17:56:04.873Z,22.00
2019-03-09T17:57:04.862Z,21.80
2019-03-09T17:58:04.840Z,20.70
2019-03-09T17:59:04.824Z,21.30
2019-03-09T18:00:04.817Z,20.60
2019-03-09T18:01:04.808Z,17.90
2019-03-09T18:02:04.807Z,18.30
2019-03-09T18:03:04.796Z,19.00
2019-03-09T18:04:04.771Z,16.60
2019-03-09T18:05:04.761Z,26.40
2019-03-09T18:06:04.753Z,18.80
2019-03-09T18:07:04.736Z,22.80
2019-03-09T18:08:04.731Z,21.90
2019-03-09T18:09:04.715Z,18.70
2019-03-09T18:10:04.701Z,18.20
2019-03-09T18:11:04.687Z,22.30
2019-03-09T18:12:04.688Z,18.70
2019-03-09T18:13:04.669Z,17.40
2019-03-09T18:14:07.251Z,15.50
2019-03-09T18:15:04.644Z,17.00
2019-03-09T18:16:04.634Z,17.70
2019-03-09T18:17:04.622Z,14.90
2019-03-09T18:18:04.611Z,21.20
2019-03-09T18:19:04.601Z,20.90
2019-03-09T18:20:04.593Z,14.20
2019-03-09T18:21:04.582Z,15.20
2019-03-09T18:22:04.592Z,21.50
2019-03-09T18:23:04.562Z,17.70
2019-03-09T18:24:04.546Z,14.00
2019-03-09T18:25:04.543Z,14.60
2019-03-09T18:26:04.541Z,14.00
2019-03-09T18:27:04.511Z,13.40
2019-03-09T18:28:04.502Z,18.30
2019-03-09T18:29:05.395Z,18.70
2019-03-09T18:30:04.483Z,18.60
2019-03-09T18:31:04.508Z,17.80
2019-03-09T18:32:04.465Z,14.90
2019-03-09T18:33:04.452Z,12.50
2019-03-09T18:34:04.444Z,14.90
2019-03-09T18:35:04.433Z,16.30
2019-03-09T18:36:04.420Z,16.30
2019-03-09T18:37:04.404Z,16.30
2019-03-09T18:38:04.404Z,14.60
2019-03-09T18:39:04.381Z,16.40
2019-03-09T18:40:04.387Z,17.20
2019-03-09T18:41:04.367Z,13.90
2019-03-09T18:42:04.366Z,91.40
2019-03-09T18:43:04.339Z,49.70
2019-03-09T18:44:04.331Z,53.00
2019-03-09T18:45:04.322Z,102.70
2019-03-09T18:46:04.320Z,83.30
2019-03-09T18:47:04.297Z,84.40
2019-03-09T18:48:04.297Z,67.70
2019-03-09T18:49:04.278Z,69.60
2019-03-09T18:50:04.264Z,71.10
2019-03-09T18:51:04.252Z,66.00
2019-03-09T18:52:04.248Z,56.80
2019-03-09T18:53:04.230Z,64.60
2019-03-09T18:54:04.222Z,72.90
2019-03-09T18:55:04.215Z,50.10
2019-03-09T18:56:04.201Z,60.90
2019-03-09T18:57:04.190Z,54.40
2019-03-09T18:58:04.186Z,49.30
2019-03-09T18:59:04.207Z,48.60
2019-03-09T19:00:04.162Z,52.30
2019-03-09T19:01:04.169Z,45.90
2019-03-09T19:02:04.139Z,46.60
2019-03-09T19:03:04.131Z,49.40
2019-03-09T19:04:04.125Z,47.40
2019-03-09T19:05:04.106Z,43.80
2019-03-09T19:06:04.100Z,40.50
2019-03-09T19:07:04.088Z,43.50
2019-03-09T19:08:04.068Z,48.60
2019-03-09T19:09:04.063Z,39.60
2019-03-09T19:10:04.047Z,36.70
2019-03-09T19:11:04.039Z,35.80
2019-03-09T19:12:04.024Z,32.10
2019-03-09T19:13:04.023Z,32.70
2019-03-09T19:14:04.008Z,34.80
2019-03-09T19:15:04.004Z,38.10
2019-03-09T19:16:03.987Z,41.10
2019-03-09T19:17:04.017Z,35.60
2019-03-09T19:18:03.963Z,33.60
2019-03-09T19:19:03.960Z,29.90
2019-03-09T19:20:03.944Z,35.00
2019-03-09T19:21:03.932Z,36.20
2019-03-09T19:22:03.918Z,32.40
2019-03-09T19:23:03.910Z,29.50
2019-03-09T19:24:03.902Z,28.60
2019-03-09T19:25:03.888Z,27.60
2019-03-09T19:26:03.884Z,24.10
2019-03-09T19:27:03.865Z,25.70
2019-03-09T19:28:03.853Z,27.30
2019-03-09T19:29:03.848Z,21.60
2019-03-09T19:30:03.836Z,30.50
2019-03-09T19:31:03.832Z,25.50
2019-03-09T19:32:03.807Z,21.30
2019-03-09T19:33:03.800Z,32.70
2019-03-09T19:34:03.788Z,26.10
2019-03-09T19:35:03.782Z,26.40
2019-03-09T19:36:03.767Z,23.60
2019-03-09T19:37:03.753Z,25.00
2019-03-09T19:38:03.741Z,20.60
2019-03-09T19:39:03.730Z,19.10
2019-03-09T19:40:03.733Z,21.90
2019-03-09T19:41:03.718Z,22.60
2019-03-09T19:42:03.710Z,19.30
2019-03-09T19:43:03.698Z,16.50
2019-03-09T19:44:03.679Z,20.30
2019-03-09T19:45:03.671Z,20.30
2019-03-09T19:46:03.654Z,24.40
2019-03-09T19:47:03.642Z,18.60
2019-03-09T19:48:03.640Z,20.30
2019-03-09T19:49:03.622Z,25.70
2019-03-09T19:50:03.611Z,16.70
2019-03-09T19:51:03.601Z,17.50
2019-03-09T19:52:03.589Z,19.30
2019-03-09T19:53:03.577Z,19.40
2019-03-09T19:54:03.572Z,21.90
2019-03-09T19:55:03.555Z,17.40
2019-03-09T19:56:03.554Z,20.60
2019-03-09T19:57:03.535Z,18.90
2019-03-09T19:58:03.560Z,15.70
2019-03-09T19:59:03.522Z,16.80
2019-03-09T20:00:03.508Z,17.90
2019-03-09T20:01:03.493Z,17.90
2019-03-09T20:02:03.487Z,16.40
2019-03-09T20:03:03.474Z,17.20
2019-03-09T20:04:03.463Z,13.80
2019-03-09T20:05:03.456Z,14.00
2019-03-09T20:06:03.439Z,16.30
2019-03-09T20:07:03.425Z,19.20
2019-03-09T20:08:03.427Z,15.00
2019-03-09T20:09:03.416Z,14.30
2019-03-09T20:10:03.401Z,11.70
2019-03-09T20:11:03.386Z,15.00
2019-03-09T20:12:03.371Z,12.60
2019-03-09T20:13:03.370Z,16.40
2019-03-09T20:14:03.347Z,12.40
2019-03-09T20:15:03.341Z,13.10
2019-03-09T20:16:03.328Z,13.30
2019-03-09T20:17:03.318Z,16.00
2019-03-09T20:18:03.316Z,15.00
2019-03-09T20:19:03.293Z,9.40
2019-03-09T20:20:03.282Z,12.30
2019-03-09T20:21:03.277Z,16.70
2019-03-09T20:22:03.269Z,11.00
2019-03-09T20:23:03.266Z,12.80
2019-03-09T20:24:03.237Z,14.40
2019-03-09T20:25:03.229Z,13.10
2019-03-09T20:26:03.217Z,11.30
2019-03-09T20:27:03.219Z,10.10
2019-03-09T20:28:03.197Z,11.90
2019-03-09T20:29:03.190Z,8.90
2019-03-09T20:30:03.175Z,12.50
2019-03-09T20:31:03.166Z,10.90
2019-03-09T20:32:03.166Z,13.20
2019-03-09T20:33:03.150Z,8.30
2019-03-09T20:34:03.128Z,8.70
2019-03-09T20:35:03.119Z,12.10
2019-03-09T20:36:03.106Z,14.00
2019-03-09T20:37:03.101Z,13.70
2019-03-09T20:38:03.084Z,8.00
2019-03-09T20:39:03.075Z,12.80
2019-03-09T20:40:03.062Z,11.10
2019-03-09T20:41:03.066Z,9.30
2019-03-09T20:42:03.045Z,11.00
2019-03-09T20:43:03.034Z,13.40
2019-03-09T20:44:03.026Z,11.20
2019-03-09T20:45:03.029Z,10.10
2019-03-09T20:46:02.995Z,8.50
2019-03-09T20:47:02.988Z,12.40
2019-03-09T20:48:02.976Z,9.90
2019-03-09T20:49:02.970Z,10.50
2019-03-09T20:50:02.952Z,9.40
2019-03-09T20:51:02.953Z,9.50
2019-03-09T20:52:02.933Z,8.10
2019-03-09T20:53:02.921Z,10.20
2019-03-09T20:54:02.911Z,9.50
2019-03-09T20:55:02.903Z,8.20
2019-03-09T20:56:02.898Z,7.40
2019-03-09T20:57:02.874Z,7.50
2019-03-09T20:58:02.866Z,7.60
2019-03-09T20:59:02.855Z,8.90
2019-03-09T21:00:02.853Z,8.60
2019-03-09T21:01:02.854Z,8.30
2019-03-09T21:02:02.843Z,8.10
2019-03-09T21:03:02.816Z,8.60
2019-03-09T21:04:02.814Z,8.40
2019-03-09T21:05:02.786Z,10.50
2019-03-09T21:06:02.805Z,8.10
2019-03-09T21:07:02.776Z,9.00
2019-03-09T21:08:02.763Z,7.10
2019-03-09T21:09:02.753Z,8.00
2019-03-09T21:10:02.733Z,7.00
2019-03-09T21:11:04.291Z,7.70
2019-03-09T21:12:02.726Z,6.60
2019-03-09T21:13:02.709Z,8.00
2019-03-09T21:14:02.717Z,8.00
2019-03-09T21:15:02.694Z,7.90
2019-03-09T21:16:02.680Z,5.90
2019-03-09T21:17:02.662Z,8.00
2019-03-09T21:18:02.650Z,7.00
2019-03-09T21:19:02.658Z,8.00
2019-03-09T21:20:02.627Z,7.30
2019-03-09T21:21:02.616Z,5.80
2019-03-09T21:22:02.605Z,8.50
2019-03-09T21:23:02.610Z,9.70
2019-03-09T21:24:02.586Z,5.60
2019-03-09T21:25:02.586Z,6.70
2019-03-09T21:26:02.568Z,6.00
2019-03-09T21:27:02.566Z,7.70
2019-03-09T21:28:02.541Z,6.70
2019-03-09T21:29:02.544Z,6.50
2019-03-09T21:30:02.542Z,6.30
2019-03-09T21:31:02.528Z,5.30
2019-03-09T21:32:02.498Z,5.30
2019-03-09T21:33:02.485Z,6.10
2019-03-09T21:34:02.477Z,6.40
2019-03-09T21:35:02.465Z,5.90
2019-03-09T21:36:02.462Z,5.70
2019-03-09T21:37:02.449Z,6.90
2019-03-09T21:38:02.436Z,6.60
2019-03-09T21:39:02.425Z,5.60
2019-03-09T21:40:02.422Z,7.40
2019-03-09T21:41:02.414Z,5.90
2019-03-09T21:42:02.409Z,5.50
2019-03-09T21:43:02.398Z,5.60
2019-03-09T21:44:02.370Z,8.40
2019-03-09T21:45:02.359Z,4.40
2019-03-09T21:46:02.351Z,4.90
2019-03-09T21:47:02.348Z,5.40
2019-03-09T21:48:02.341Z,6.80
2019-03-09T21:49:02.326Z,6.50
2019-03-09T21:50:02.304Z,6.30
2019-03-09T21:51:02.298Z,6.40
2019-03-09T21:52:02.281Z,5.20
2019-03-09T21:53:02.274Z,6.00
2019-03-09T21:54:02.259Z,6.90
2019-03-09T21:55:02.250Z,5.00
2019-03-09T21:56:02.237Z,6.40
2019-03-09T21:57:02.233Z,6.00
2019-03-09T21:58:02.277Z,7.10
2019-03-09T21:59:02.233Z,4.20
2019-03-09T22:00:02.201Z,6.10
2019-03-09T22:01:02.186Z,5.60
2019-03-09T22:02:02.174Z,3.80
2019-03-09T22:03:02.164Z,4.90
2019-03-09T22:04:02.159Z,3.90
2019-03-09T22:05:02.147Z,4.30
2019-03-09T22:06:05.924Z,4.40
2019-03-09T22:07:02.124Z,4.80
2019-03-09T22:08:02.110Z,5.80
2019-03-09T22:09:02.102Z,5.00
2019-03-09T22:10:02.092Z,6.40
2019-03-09T22:11:02.082Z,5.40
2019-03-09T22:12:02.076Z,5.30
2019-03-09T22:13:02.056Z,8.50
2019-03-09T22:14:02.049Z,4.40
2019-03-09T22:15:02.039Z,3.90
2019-03-09T22:16:02.059Z,5.50
2019-03-09T22:17:02.034Z,5.40
2019-03-09T22:18:02.013Z,5.00
2019-03-09T22:19:01.998Z,4.00
2019-03-09T22:20:01.989Z,5.50
2019-03-09T22:21:01.976Z,4.70
2019-03-09T22:22:01.975Z,3.00
2019-03-09T22:23:01.955Z,3.50
2019-03-09T22:24:01.963Z,3.70
2019-03-09T22:25:01.929Z,5.10
2019-03-09T22:26:01.916Z,5.30
2019-03-09T22:27:01.914Z,3.30
2019-03-09T22:28:01.897Z,6.50
2019-03-09T22:29:01.894Z,4.00
2019-03-09T22:30:01.876Z,6.00
2019-03-09T22:31:01.864Z,4.80
2019-03-09T22:32:01.855Z,3.10
2019-03-09T22:33:01.846Z,4.60
2019-03-09T22:34:01.835Z,4.60
2019-03-09T22:35:01.830Z,5.60
2019-03-09T22:36:01.812Z,4.50
2019-03-09T22:37:01.804Z,4.00
2019-03-09T22:38:01.806Z,4.30
2019-03-09T22:39:01.783Z,5.10
2019-03-09T22:40:01.770Z,3.10
2019-03-09T22:41:01.760Z,3.30
2019-03-09T22:42:01.747Z,2.80
2019-03-09T22:43:01.747Z,3.90
2019-03-09T22:44:01.735Z,5.30
2019-03-09T22:45:01.715Z,5.50
2019-03-09T22:46:01.706Z,6.10
2019-03-09T22:47:10.993Z,3.70
2019-03-09T22:48:02.682Z,2.50
2019-03-09T22:49:01.674Z,4.20
2019-03-09T22:50:01.672Z,5.30
2019-03-09T22:51:01.656Z,3.30
2019-03-09T22:52:01.644Z,4.00
2019-03-09T22:53:01.666Z,3.70
2019-03-09T22:54:01.621Z,4.70
2019-03-09T22:55:01.611Z,4.60
2019-03-09T22:56:01.604Z,5.10
2019-03-09T22:57:01.590Z,2.90
2019-03-09T22:58:01.581Z,4.80
2019-03-09T22:59:01.591Z,5.20
2019-03-09T23:00:01.558Z,3.20
2019-03-09T23:01:01.549Z,2.70
2019-03-09T23:02:01.550Z,4.00
2019-03-09T23:03:01.528Z,3.60
2019-03-09T23:04:01.520Z,2.50
2019-03-09T23:05:01.527Z,3.60
2019-03-09T23:06:01.531Z,4.90
2019-03-09T23:07:01.482Z,4.20
2019-03-09T23:08:01.473Z,3.30
2019-03-09T23:09:01.467Z,2.80
2019-03-09T23:10:01.477Z,3.70
2019-03-09T23:11:01.454Z,5.30
2019-03-09T23:12:01.429Z,2.30
2019-03-09T23:13:01.419Z,5.90
2019-03-09T23:14:01.411Z,4.50
2019-03-09T23:15:01.436Z,4.10
2019-03-09T23:16:01.399Z,5.90
2019-03-09T23:17:01.400Z,3.60
2019-03-09T23:18:01.382Z,3.90
2019-03-09T23:19:01.359Z,2.10
2019-03-09T23:20:01.384Z,3.20
2019-03-09T23:21:01.347Z,5.60
2019-03-09T23:22:01.334Z,3.10
2019-03-09T23:23:01.320Z,4.70
2019-03-09T23:24:01.303Z,3.70
2019-03-09T23:25:01.298Z,4.10
2019-03-09T23:26:01.283Z,3.20
2019-03-09T23:27:01.280Z,4.30
2019-03-09T23:28:01.269Z,4.10
2019-03-09T23:29:01.264Z,3.50
2019-03-09T23:30:01.243Z,3.20
2019-03-09T23:31:01.229Z,3.40
2019-03-09T23:32:01.221Z,4.00
2019-03-09T23:33:01.218Z,3.30
2019-03-09T23:34:01.212Z,3.90
2019-03-09T23:35:01.187Z,4.40
2019-03-09T23:36:01.185Z,3.10
2019-03-09T23:37:01.168Z,3.70
2019-03-09T23:38:01.159Z,2.30
2019-03-09T23:39:01.148Z,3.80
2019-03-09T23:40:01.139Z,2.90
2019-03-09T23:41:01.123Z,3.20
2019-03-09T23:42:01.118Z,3.00
2019-03-09T23:43:01.102Z,3.70
2019-03-09T23:44:01.090Z,2.60
2019-03-09T23:45:01.085Z,2.40
2019-03-09T23:46:01.079Z,3.50
2019-03-09T23:47:01.059Z,2.30
2019-03-09T23:48:01.055Z,4.20
2019-03-09T23:49:01.039Z,2.40
2019-03-09T23:50:01.028Z,3.10
2019-03-09T23:51:01.022Z,2.70
2019-03-09T23:52:01.021Z,3.70
2019-03-09T23:53:00.999Z,3.40
2019-03-09T23:54:01.054Z,3.00
2019-03-09T23:55:00.974Z,3.80
2019-03-09T23:56:00.964Z,2.40
2019-03-09T23:57:00.953Z,2.90
2019-03-09T23:58:00.945Z,2.10
2019-03-09T23:59:00.944Z,3.50
